Hurffville, New Jersey
Current Conditions -  °F | °C
As of 4:54 AM on Friday 21 Nov 2014 (Local Time) from KPHL Reporting Station
Clear Clear  
Wind Chill: 20°   Ceiling: Unl
Heat Index: 30°   Visibility: 10mi
Dew Point:   Wind: 13mph
Humidity: 38%   Direction: 280°W
Pressure: 30.22"   Gusts: NA
Location:  39.7561°N, 75.1094°W
Report Text: KPHL 210954Z 28011KT 10SM CLR M01/M14 A3022 RMK AO2 SLP233 T10111139
Loading
Personal Weather Stations






























Interactive Weather Map New forecast layout! Learn more

10-Day Weather Forecast

Advertisements
Track Severe Weather on mobile